KMZZ/MZZ METAR and TAF weather

Enter ICAO airport designator
Station Type Date Time Source
KMZZ METAR 2024/04/23 03:15 UTC NOAA

KMZZ 230315Z AUTO 23006KT 10SM CLR 11/03 A3003 RMK AO2 T01050028


Station Type Date Time Source
KMZZ Decoded METAR 2024/04/23 03:15 UTC NOAA

Station name not available
Apr 22, 2024 - 11:15 PM EDT / 2024.04.23 0315 UTC
Wind: from the SW (230 degrees) at 7 MPH (6 KT):0
Visibility: 10 mile(s):0
Sky conditions: clear
Temperature: 50.9 F (10.5 C)
Dew Point: 37.0 F (2.8 C)
Relative Humidity: 58%
Pressure (altimeter): 30.03 in. Hg (1016 hPa)
ob: KMZZ 230315Z AUTO 23006KT 10SM CLR 11/03 A3003 RMK AO2 T01050028
cycle: 3

Station Type Date Time Source
KMZZ TAF UTC NOAA

Error!

Example: see airport list